Time;durP1;ratioP1;P1;durP2;ratioP2;P2;SDS_P1;SDS_P2;PMS_P1;PMS_P2;Temp;Humidity;BMP_temperature;BMP_pressure;BME280_temperature;BME280_humidity;BME280_pressure;Samples;Min_cycle;Max_cycle;Signal;HPM_P1;HPM_P2
2023/06/13 00:00:44;;;;;;;;;9.00;5.00;;;;;;;;5011214;28;8929;-76
2023/06/13 00:03:13;;;;;;;;;10.00;10.00;;;;;;;;4993869;28;8822;-76
2023/06/13 00:05:38;;;;;;;;;8.00;8.00;;;;;;;;5011319;28;9447;-76
2023/06/13 00:08:04;;;;;;;;;12.50;10.75;;;;;;;;5011458;28;9420;-76
2023/06/13 00:10:30;;;;;;;;;9.00;8.00;;;;;;;;5010349;28;8823;-76
2023/06/13 00:12:55;;;;;;;;;10.00;8.00;;;;;;;;5011115;28;9591;-76
2023/06/13 00:15:20;;;;;;;;;11.00;10.50;;;;;;;;5011242;28;8787;-76
2023/06/13 00:17:47;;;;;;;;;11.25;9.25;;;;;;;;5010892;28;8814;-76
2023/06/13 00:20:13;;;;;;;;;8.00;8.00;;;;;;;;4993474;28;8849;-76
2023/06/13 00:22:38;;;;;;;;;9.25;8.00;;;;;;;;5011176;28;9420;-76
2023/06/13 00:27:32;;;;;;;;;8.33;7.00;;;;;;;;4969411;28;8952;-73
2023/06/13 00:29:57;;;;;;;;;8.25;7.00;;;;;;;;4971305;28;9301;-73
2023/06/13 00:32:23;;;;;;;;;8.75;7.25;;;;;;;;4971188;28;8785;-72
2023/06/13 00:34:48;;;;;;;;;9.50;9.50;;;;;;;;4971090;28;8812;-73
2023/06/13 00:37:14;;;;;;;;;13.00;8.25;;;;;;;;4953373;28;8816;-73
2023/06/13 00:39:40;;;;;;;;;10.33;7.33;;;;;;;;4971183;28;8828;-72
2023/06/13 00:42:06;;;;;;;;;8.25;8.25;;;;;;;;4971095;28;8895;-73
2023/06/13 00:44:31;;;;;;;;;8.50;8.00;;;;;;;;4971092;28;8801;-73
2023/06/13 00:46:57;;;;;;;;;9.25;9.00;;;;;;;;4971114;28;9578;-72
2023/06/13 00:49:22;;;;;;;;;8.75;7.75;;;;;;;;4959537;28;8905;-72
2023/06/13 00:51:47;;;;;;;;;8.75;7.50;;;;;;;;4951668;29;8826;-73
2023/06/13 00:54:16;;;;;;;;;7.75;7.75;;;;;;;;4951686;29;8803;-72
2023/06/13 00:56:44;;;;;;;;;9.50;9.50;;;;;;;;4951559;29;8877;-73
2023/06/13 00:59:10;;;;;;;;;7.00;7.00;;;;;;;;4951538;29;9733;-73
2023/06/13 01:01:36;;;;;;;;;9.00;8.00;;;;;;;;4951414;29;9591;-73
2023/06/13 01:04:02;;;;;;;;;7.25;7.25;;;;;;;;4951674;29;9419;-73
2023/06/13 01:06:30;;;;;;;;;10.00;8.00;;;;;;;;4934401;29;9587;-72
2023/06/13 01:09:00;;;;;;;;;13.25;10.00;;;;;;;;4951543;29;8941;-72
2023/06/13 01:11:44;;;;;;;;;10.00;10.00;;;;;;;;4953863;28;9668;-73
2023/06/13 01:14:16;;;;;;;;;9.00;9.00;;;;;;;;4954887;28;9778;-73
2023/06/13 01:16:41;;;;;;;;;8.00;8.00;;;;;;;;4955563;28;10392;-74
2023/06/13 01:19:13;;;;;;;;;9.75;9.00;;;;;;;;4955443;28;9981;-71
2023/06/13 01:21:39;;;;;;;;;8.50;8.50;;;;;;;;4938018;28;8826;-73
2023/06/13 01:24:07;;;;;;;;;8.25;8.25;;;;;;;;4955373;28;9978;-73
2023/06/13 01:26:38;;;;;;;;;8.00;8.00;;;;;;;;4955728;28;9853;-73
2023/06/13 01:29:04;;;;;;;;;11.50;8.75;;;;;;;;4955149;28;9753;-75
2023/06/13 01:31:31;;;;;;;;;8.50;8.00;;;;;;;;4955057;28;10501;-75
2023/06/13 01:33:58;;;;;;;;;8.25;8.25;;;;;;;;4955133;28;9533;-74
2023/06/13 01:36:23;;;;;;;;;8.50;8.50;;;;;;;;4954975;28;9822;-74
2023/06/13 01:38:49;;;;;;;;;9.75;9.75;;;;;;;;4955124;28;9861;-73
2023/06/13 01:41:14;;;;;;;;;13.75;9.00;;;;;;;;4954923;28;8783;-74
2023/06/13 01:43:39;;;;;;;;;12.75;9.50;;;;;;;;4955117;28;8884;-73
2023/06/13 01:46:09;;;;;;;;;12.00;9.00;;;;;;;;4954996;28;8811;-72
2023/06/13 01:48:43;;;;;;;;;11.25;10.00;;;;;;;;4954498;28;8839;-73
2023/06/13 01:51:19;;;;;;;;;8.00;8.00;;;;;;;;4954764;28;9910;-73
2023/06/13 01:53:52;;;;;;;;;8.50;8.00;;;;;;;;4953448;28;9860;-72
2023/06/13 01:56:22;;;;;;;;;9.75;8.75;;;;;;;;4954678;28;9836;-72
2023/06/13 01:58:57;;;;;;;;;7.75;7.75;;;;;;;;4954611;28;9754;-72
2023/06/13 02:01:24;;;;;;;;;10.00;9.00;;;;;;;;4954614;28;10443;-73
2023/06/13 02:03:49;;;;;;;;;7.25;7.25;;;;;;;;4954501;28;9733;-73
2023/06/13 02:06:15;;;;;;;;;7.00;7.00;;;;;;;;4954400;28;9802;-73
2023/06/13 02:08:40;;;;;;;;;9.50;8.25;;;;;;;;4952698;28;9576;-72
2023/06/13 02:11:06;;;;;;;;;7.50;7.50;;;;;;;;4954382;28;8852;-72
2023/06/13 02:13:31;;;;;;;;;9.75;9.00;;;;;;;;4954381;28;8803;-73
2023/06/13 02:15:56;;;;;;;;;9.75;9.75;;;;;;;;4954409;28;8810;-72
2023/06/13 02:18:21;;;;;;;;;9.00;7.75;;;;;;;;4954162;28;8803;-72
2023/06/13 02:20:47;;;;;;;;;8.00;8.00;;;;;;;;4954172;28;9561;-71
2023/06/13 02:23:12;;;;;;;;;9.00;9.00;;;;;;;;4953643;28;8795;-72
2023/06/13 02:25:38;;;;;;;;;6.50;6.00;;;;;;;;4953037;28;8822;-72
2023/06/13 02:28:03;;;;;;;;;8.00;6.25;;;;;;;;4936796;28;8821;-72
2023/06/13 02:30:29;;;;;;;;;8.50;8.50;;;;;;;;4936610;28;8818;-71
2023/06/13 02:32:54;;;;;;;;;9.00;7.00;;;;;;;;4953922;28;9557;-71
2023/06/13 02:35:23;;;;;;;;;10.00;9.25;;;;;;;;4952429;28;8818;-73
2023/06/13 02:37:50;;;;;;;;;8.00;8.00;;;;;;;;4953961;28;8803;-72
2023/06/13 02:40:16;;;;;;;;;9.75;8.00;;;;;;;;4953735;28;9860;-72
2023/06/13 02:42:41;;;;;;;;;7.50;6.75;;;;;;;;4953220;28;9856;-71
2023/06/13 02:45:06;;;;;;;;;8.00;8.00;;;;;;;;4953685;28;8814;-73
2023/06/13 02:47:32;;;;;;;;;7.75;7.75;;;;;;;;4953646;28;8808;-72
2023/06/13 02:49:57;;;;;;;;;10.25;8.25;;;;;;;;4953931;28;8838;-73
2023/06/13 02:52:23;;;;;;;;;8.50;8.00;;;;;;;;4953884;28;8810;-72
2023/06/13 02:54:48;;;;;;;;;8.00;7.00;;;;;;;;4953929;28;8817;-72
2023/06/13 02:57:14;;;;;;;;;9.00;9.00;;;;;;;;4953671;28;9839;-72
2023/06/13 02:59:40;;;;;;;;;11.75;9.75;;;;;;;;4953492;28;8814;-72
2023/06/13 03:02:05;;;;;;;;;10.25;8.00;;;;;;;;4953082;28;10505;-72
2023/06/13 03:04:32;;;;;;;;;7.50;7.50;;;;;;;;4953427;28;8814;-72
2023/06/13 03:06:59;;;;;;;;;9.00;9.00;;;;;;;;4953465;28;8805;-72
2023/06/13 03:09:25;;;;;;;;;8.25;8.25;;;;;;;;4953482;28;9516;-73
2023/06/13 03:11:50;;;;;;;;;13.00;11.75;;;;;;;;4953435;28;9660;-73
2023/06/13 03:14:16;;;;;;;;;8.50;8.50;;;;;;;;4953363;28;8838;-73
2023/06/13 03:16:42;;;;;;;;;9.75;8.00;;;;;;;;4964439;28;8793;-73
2023/06/13 03:19:08;;;;;;;;;6.75;5.00;;;;;;;;4972049;28;9771;-72
2023/06/13 03:21:33;;;;;;;;;8.00;7.00;;;;;;;;4972594;28;8792;-71
2023/06/13 03:23:58;;;;;;;;;9.25;8.00;;;;;;;;4972505;28;8781;-71
2023/06/13 03:26:25;;;;;;;;;7.00;7.00;;;;;;;;4972363;28;8815;-72
2023/06/13 03:28:50;;;;;;;;;7.75;7.75;;;;;;;;4972270;28;9645;-72
2023/06/13 03:31:16;;;;;;;;;5.50;5.50;;;;;;;;4972200;28;9520;-71
2023/06/13 03:33:41;;;;;;;;;8.25;7.00;;;;;;;;4954067;28;8812;-71
2023/06/13 03:36:07;;;;;;;;;7.25;7.25;;;;;;;;4971974;28;8823;-77
2023/06/13 03:38:32;;;;;;;;;9.00;7.00;;;;;;;;4971496;28;8800;-78
2023/06/13 03:40:57;;;;;;;;;10.50;10.00;;;;;;;;4971416;28;8825;-80
2023/06/13 03:43:23;;;;;;;;;7.75;7.75;;;;;;;;4971592;28;8813;-88
2023/06/13 03:45:48;;;;;;;;;6.00;6.00;;;;;;;;4972744;28;8808;-88
2023/06/13 03:48:14;;;;;;;;;9.00;8.50;;;;;;;;4973041;28;8886;-82
2023/06/13 03:50:39;;;;;;;;;10.00;8.25;;;;;;;;4972146;28;8878;-77
2023/06/13 03:53:04;;;;;;;;;7.00;7.00;;;;;;;;4972178;28;8796;-84
2023/06/13 03:55:32;;;;;;;;;7.00;6.75;;;;;;;;4972243;28;8800;-85
2023/06/13 03:57:57;;;;;;;;;11.75;9.75;;;;;;;;4971748;28;8919;-85
2023/06/13 04:00:23;;;;;;;;;9.75;6.50;;;;;;;;4972042;28;9989;-84
2023/06/13 04:02:48;;;;;;;;;8.75;8.00;;;;;;;;4975843;28;8821;-85
2023/06/13 04:05:13;;;;;;;;;9.50;8.00;;;;;;;;4973712;28;8929;-83
2023/06/13 04:07:39;;;;;;;;;7.75;7.75;;;;;;;;4973283;28;8831;-84
2023/06/13 04:10:05;;;;;;;;;9.50;8.00;;;;;;;;4973306;28;8863;-86
2023/06/13 04:12:30;;;;;;;;;11.75;9.00;;;;;;;;4972982;28;8942;-84
2023/06/13 04:14:55;;;;;;;;;8.25;8.25;;;;;;;;4971640;28;8828;-85
2023/06/13 04:17:21;;;;;;;;;8.25;8.00;;;;;;;;4971244;28;8831;-86
2023/06/13 04:19:48;;;;;;;;;7.50;7.50;;;;;;;;4971531;28;8820;-87
2023/06/13 04:22:16;;;;;;;;;10.00;9.25;;;;;;;;4971568;28;9547;-86
2023/06/13 04:24:42;;;;;;;;;11.00;8.50;;;;;;;;4971827;28;9857;-86
2023/06/13 04:27:08;;;;;;;;;9.50;8.25;;;;;;;;4971265;28;9764;-81
2023/06/13 04:29:34;;;;;;;;;6.00;5.25;;;;;;;;4970942;28;8808;-73
2023/06/13 04:32:02;;;;;;;;;8.00;7.00;;;;;;;;4970459;28;9858;-77
2023/06/13 04:34:29;;;;;;;;;9.75;9.75;;;;;;;;4971146;28;9694;-77
2023/06/13 04:36:57;;;;;;;;;11.00;9.00;;;;;;;;4970184;28;9822;-78
2023/06/13 04:39:24;;;;;;;;;7.00;7.00;;;;;;;;4953419;28;10007;-73
2023/06/13 04:41:55;;;;;;;;;10.75;9.00;;;;;;;;4970769;28;9978;-76
2023/06/13 04:44:25;;;;;;;;;8.00;8.00;;;;;;;;4970580;28;9941;-75
2023/06/13 04:46:50;;;;;;;;;9.50;8.25;;;;;;;;4970760;28;9717;-73
2023/06/13 04:49:15;;;;;;;;;8.25;8.00;;;;;;;;4970629;28;9791;-78
2023/06/13 04:51:42;;;;;;;;;10.25;8.75;;;;;;;;4970604;28;8793;-72
2023/06/13 04:54:09;;;;;;;;;7.50;7.00;;;;;;;;4970733;28;8804;-73
2023/06/13 04:56:34;;;;;;;;;11.25;9.50;;;;;;;;4970230;28;9657;-71
2023/06/13 04:59:00;;;;;;;;;15.00;14.00;;;;;;;;4969508;28;9584;-78
2023/06/13 05:01:28;;;;;;;;;27.50;23.25;;;;;;;;4969304;28;8817;-81
2023/06/13 05:03:53;;;;;;;;;12.00;10.00;;;;;;;;4970799;28;8816;-72
2023/06/13 05:06:19;;;;;;;;;12.50;11.00;;;;;;;;4970298;28;9587;-72
2023/06/13 05:08:45;;;;;;;;;14.25;11.00;;;;;;;;4970368;28;8828;-71
2023/06/13 05:11:10;;;;;;;;;9.50;9.50;;;;;;;;4970191;28;9654;-70
2023/06/13 05:13:35;;;;;;;;;11.50;10.00;;;;;;;;4970514;28;8879;-72
2023/06/13 05:16:00;;;;;;;;;14.00;11.75;;;;;;;;4970271;28;8828;-73
2023/06/13 05:18:29;;;;;;;;;14.75;14.00;;;;;;;;4966695;28;8819;-71
2023/06/13 05:20:55;;;;;;;;;12.50;11.25;;;;;;;;4951341;29;8818;-70
2023/06/13 05:23:21;;;;;;;;;12.75;12.25;;;;;;;;4951189;29;9595;-70
2023/06/13 05:25:47;;;;;;;;;7.67;7.33;;;;;;;;4951145;29;8965;-71
2023/06/13 05:28:12;;;;;;;;;12.50;9.50;;;;;;;;4950611;29;9465;-72
2023/06/13 05:30:38;;;;;;;;;14.25;11.50;;;;;;;;4950889;29;8822;-71
2023/06/13 05:33:03;;;;;;;;;14.75;12.25;;;;;;;;4951175;29;8815;-75
2023/06/13 05:35:28;;;;;;;;;9.75;9.25;;;;;;;;4933968;29;8834;-72
2023/06/13 05:37:54;;;;;;;;;13.00;9.25;;;;;;;;4951172;29;8791;-74
2023/06/13 05:40:19;;;;;;;;;11.75;11.75;;;;;;;;4951895;28;9532;-72
2023/06/13 05:42:47;;;;;;;;;12.00;10.67;;;;;;;;4969924;28;9555;-71
2023/06/13 05:45:13;;;;;;;;;11.67;10.67;;;;;;;;4969274;28;8832;-73
2023/06/13 05:47:38;;;;;;;;;10.25;10.00;;;;;;;;4969173;28;9377;-70
2023/06/13 05:50:03;;;;;;;;;15.75;11.50;;;;;;;;4969963;28;9551;-71
2023/06/13 05:52:31;;;;;;;;;11.00;10.00;;;;;;;;4969925;28;8895;-71
2023/06/13 05:54:56;;;;;;;;;12.25;11.00;;;;;;;;4969936;28;9273;-70
2023/06/13 05:57:23;;;;;;;;;11.75;10.00;;;;;;;;4971882;28;10079;-70
2023/06/13 05:59:49;;;;;;;;;12.75;12.75;;;;;;;;4973326;28;8898;-71
2023/06/13 06:13:36;;;;;;;;;10.50;9.25;;;;;;;;5104213;27;13428;-76
2023/06/13 06:16:02;;;;;;;;;10.00;10.00;;;;;;;;5107412;28;9816;-76
2023/06/13 06:18:27;;;;;;;;;14.00;11.75;;;;;;;;5106741;28;8807;-72
2023/06/13 06:20:52;;;;;;;;;10.33;9.67;;;;;;;;5107564;28;8788;-72
2023/06/13 06:23:17;;;;;;;;;12.50;10.00;;;;;;;;5107129;28;8811;-74
2023/06/13 06:25:43;;;;;;;;;11.33;8.00;;;;;;;;5105727;28;8812;-74
2023/06/13 06:28:09;;;;;;;;;9.00;8.67;;;;;;;;5105837;28;8831;-75
2023/06/13 06:30:35;;;;;;;;;11.00;8.67;;;;;;;;5107029;28;8784;-74
2023/06/13 06:33:00;;;;;;;;;12.00;11.00;;;;;;;;5106910;28;8927;-74
2023/06/13 06:35:25;;;;;;;;;8.33;8.33;;;;;;;;5106961;28;9264;-74
2023/06/13 06:39:53;;;;;;;;;19.75;18.75;;;;;;;;5083408;27;13437;-74
2023/06/13 06:42:18;;;;;;;;;19.33;17.00;;;;;;;;5087013;28;9505;-74
2023/06/13 06:44:43;;;;;;;;;12.67;12.00;;;;;;;;5086866;28;8814;-74
2023/06/13 06:47:09;;;;;;;;;11.00;11.00;;;;;;;;5087170;28;9032;-74
2023/06/13 06:49:34;;;;;;;;;10.67;8.33;;;;;;;;5086768;28;8911;-73
2023/06/13 06:51:59;;;;;;;;;9.00;9.00;;;;;;;;5086800;28;8790;-74
2023/06/13 06:54:25;;;;;;;;;6.33;6.33;;;;;;;;5086632;28;8826;-74
2023/06/13 06:56:50;;;;;;;;;6.00;6.00;;;;;;;;5086315;28;8794;-74
2023/06/13 06:59:15;;;;;;;;;9.00;9.00;;;;;;;;5085196;28;8807;-74
2023/06/13 07:01:40;;;;;;;;;6.00;6.00;;;;;;;;5086633;28;8904;-74
2023/06/13 07:04:06;;;;;;;;;7.33;7.33;;;;;;;;5087349;28;8813;-73
2023/06/13 07:06:31;;;;;;;;;7.00;6.00;;;;;;;;5086615;28;8779;-74
2023/06/13 07:08:57;;;;;;;;;7.00;7.00;;;;;;;;5086299;28;8911;-73
2023/06/13 07:11:22;;;;;;;;;6.67;5.00;;;;;;;;5086089;28;8813;-74
2023/06/13 07:13:47;;;;;;;;;9.00;8.00;;;;;;;;5084548;28;8840;-71
2023/06/13 07:16:12;;;;;;;;;7.00;7.00;;;;;;;;5085233;28;8790;-72
2023/06/13 07:18:38;;;;;;;;;8.33;6.33;;;;;;;;5086241;28;8914;-71
2023/06/13 07:21:03;;;;;;;;;6.00;4.67;;;;;;;;5086224;28;8771;-71
2023/06/13 07:23:28;;;;;;;;;5.33;5.00;;;;;;;;5086502;28;8810;-71
2023/06/13 07:25:53;;;;;;;;;4.00;4.00;;;;;;;;5086661;28;8783;-72
2023/06/13 07:28:19;;;;;;;;;5.00;5.00;;;;;;;;5085219;28;8818;-72
2023/06/13 07:30:44;;;;;;;;;6.00;5.00;;;;;;;;5086189;28;8822;-76
2023/06/13 07:33:11;;;;;;;;;4.67;4.67;;;;;;;;5084948;28;8920;-74
2023/06/13 07:35:37;;;;;;;;;6.00;6.00;;;;;;;;5086097;28;8809;-72
2023/06/13 07:38:02;;;;;;;;;5.00;5.00;;;;;;;;5084540;28;8830;-74
2023/06/13 07:40:27;;;;;;;;;8.67;5.33;;;;;;;;5086146;28;8817;-74
2023/06/13 07:42:54;;;;;;;;;10.67;10.67;;;;;;;;5084804;28;8834;-74
2023/06/13 07:45:19;;;;;;;;;6.75;5.25;;;;;;;;5084529;28;8822;-74
2023/06/13 07:47:45;;;;;;;;;7.33;6.33;;;;;;;;5085906;28;8880;-73
2023/06/13 07:50:10;;;;;;;;;6.33;6.33;;;;;;;;5077932;28;8991;-73
2023/06/13 07:52:35;;;;;;;;;8.67;8.67;;;;;;;;5072382;28;8787;-74
2023/06/13 07:55:01;;;;;;;;;6.00;6.00;;;;;;;;5072359;28;8791;-73
2023/06/13 07:57:26;;;;;;;;;6.00;6.00;;;;;;;;5070960;28;8798;-72
2023/06/13 07:59:54;;;;;;;;;6.00;5.00;;;;;;;;5072297;28;8806;-74
2023/06/13 08:02:19;;;;;;;;;6.75;6.00;;;;;;;;5071946;28;8794;-77
2023/06/13 08:04:45;;;;;;;;;7.00;7.00;;;;;;;;5078028;22;9616;-73
2023/06/13 08:07:11;;;;;;;;;4.00;4.00;;;;;;;;5051767;28;8863;-73
2023/06/13 08:09:39;;;;;;;;;5.00;5.00;;;;;;;;5051790;28;8855;-71
2023/06/13 08:12:09;;;;;;;;;6.50;5.75;;;;;;;;5051637;28;8879;-75
2023/06/13 08:14:40;;;;;;;;;6.75;6.00;;;;;;;;5052965;28;9602;-81
2023/06/13 08:17:11;;;;;;;;;6.00;6.00;;;;;;;;5052991;28;8797;-79
2023/06/13 08:19:38;;;;;;;;;0.00;0.00;;;;;;;;5052921;28;8821;-77
2023/06/13 08:22:04;;;;;;;;;7.00;7.00;;;;;;;;5050217;28;8851;-73
2023/06/13 08:24:29;;;;;;;;;7.00;7.00;;;;;;;;5051243;28;8920;-72
2023/06/13 08:26:55;;;;;;;;;14.33;13.67;;;;;;;;5052503;28;8920;-72
2023/06/13 08:29:25;;;;;;;;;10.67;10.67;;;;;;;;5052525;28;8812;-72
2023/06/13 08:31:51;;;;;;;;;9.75;9.75;;;;;;;;5052549;28;8789;-72
2023/06/13 08:34:20;;;;;;;;;9.00;9.00;;;;;;;;5052533;28;8832;-73
2023/06/13 08:36:45;;;;;;;;;10.00;10.00;;;;;;;;5052644;28;8823;-72
2023/06/13 08:39:10;;;;;;;;;11.00;8.67;;;;;;;;5052590;28;8824;-72
2023/06/13 08:41:36;;;;;;;;;13.67;10.67;;;;;;;;5051944;28;8801;-72
2023/06/13 08:44:10;;;;;;;;;12.67;10.00;;;;;;;;5052266;28;8882;-72
2023/06/13 08:46:41;;;;;;;;;7.25;7.25;;;;;;;;5051129;28;8781;-72
2023/06/13 08:49:10;;;;;;;;;11.00;11.00;;;;;;;;5052315;28;8813;-72
2023/06/13 08:51:38;;;;;;;;;12.00;12.00;;;;;;;;5052241;28;8808;-72
2023/06/13 08:54:04;;;;;;;;;9.25;9.25;;;;;;;;5052450;28;8793;-72
2023/06/13 08:56:34;;;;;;;;;12.00;11.75;;;;;;;;5052203;28;8793;-72
2023/06/13 08:59:08;;;;;;;;;10.50;10.25;;;;;;;;5051436;28;8860;-73
2023/06/13 09:01:37;;;;;;;;;10.75;10.75;;;;;;;;5051063;28;8833;-73
2023/06/13 09:04:04;;;;;;;;;12.00;10.00;;;;;;;;5070048;22;8790;-72
2023/06/13 09:06:33;;;;;;;;;11.50;11.25;;;;;;;;5090031;28;8827;-74
2023/06/13 09:08:58;;;;;;;;;11.00;11.00;;;;;;;;5091248;28;8780;-72
2023/06/13 09:11:24;;;;;;;;;8.00;8.00;;;;;;;;5091045;28;8857;-71
2023/06/13 09:13:51;;;;;;;;;12.33;10.00;;;;;;;;5090904;28;8830;-71
2023/06/13 09:16:16;;;;;;;;;10.75;10.25;;;;;;;;5089634;28;9734;-71
2023/06/13 09:18:43;;;;;;;;;10.67;9.00;;;;;;;;5090303;28;8870;-71
2023/06/13 09:21:11;;;;;;;;;10.00;10.00;;;;;;;;5090972;28;9566;-71
2023/06/13 09:23:37;;;;;;;;;13.75;11.75;;;;;;;;5090895;28;8792;-71
2023/06/13 09:26:03;;;;;;;;;11.33;11.33;;;;;;;;5090728;28;9854;-71
2023/06/13 09:28:40;;;;;;;;;11.33;11.33;;;;;;;;5089313;28;8807;-71
2023/06/13 09:31:10;;;;;;;;;12.50;10.75;;;;;;;;5090785;28;8851;-72
2023/06/13 09:33:35;;;;;;;;;11.75;11.00;;;;;;;;5090719;28;8932;-72
2023/06/13 09:36:01;;;;;;;;;11.00;11.00;;;;;;;;5090378;28;8788;-71
2023/06/13 09:38:26;;;;;;;;;14.00;11.00;;;;;;;;5088956;28;8916;-72
2023/06/13 09:40:53;;;;;;;;;13.00;13.00;;;;;;;;5090603;28;8853;-72
2023/06/13 09:43:19;;;;;;;;;12.50;12.00;;;;;;;;5090396;28;8981;-72
2023/06/13 09:45:44;;;;;;;;;12.67;12.67;;;;;;;;5090459;28;9502;-72
2023/06/13 09:48:09;;;;;;;;;11.00;11.00;;;;;;;;5089026;28;11491;-71
2023/06/13 09:50:36;;;;;;;;;11.33;11.00;;;;;;;;5090327;28;8799;-71
2023/06/13 09:53:01;;;;;;;;;12.25;11.50;;;;;;;;5089770;28;8812;-71
2023/06/13 09:55:27;;;;;;;;;13.67;12.33;;;;;;;;5090357;28;8903;-72
2023/06/13 09:57:52;;;;;;;;;16.00;14.00;;;;;;;;5090150;28;8854;-72
2023/06/13 10:00:17;;;;;;;;;16.33;15.33;;;;;;;;5089987;28;8882;-72
2023/06/13 10:02:46;;;;;;;;;11.33;11.00;;;;;;;;5090376;28;8910;-72
2023/06/13 10:05:14;;;;;;;;;13.25;12.25;;;;;;;;5090597;28;8808;-72
2023/06/13 10:07:39;;;;;;;;;16.00;13.00;;;;;;;;5090009;28;8795;-72
2023/06/13 10:10:05;;;;;;;;;13.00;13.00;;;;;;;;5090069;28;8865;-72
2023/06/13 10:12:31;;;;;;;;;14.33;13.67;;;;;;;;5089203;28;8823;-72
2023/06/13 10:15:00;;;;;;;;;14.25;14.25;;;;;;;;5089776;28;8799;-72
2023/06/13 10:17:28;;;;;;;;;15.25;14.00;;;;;;;;5089928;28;8788;-72
2023/06/13 10:19:58;;;;;;;;;13.33;13.33;;;;;;;;5073721;28;8871;-74
2023/06/13 10:22:23;;;;;;;;;16.00;16.00;;;;;;;;5069514;28;8939;-72
2023/06/13 10:24:50;;;;;;;;;13.33;12.33;;;;;;;;5069857;28;8968;-72
2023/06/13 10:27:17;;;;;;;;;17.33;17.00;;;;;;;;5069630;28;8783;-72
2023/06/13 10:29:45;;;;;;;;;15.75;15.00;;;;;;;;5069133;28;9027;-72
2023/06/13 10:32:10;;;;;;;;;15.25;15.25;;;;;;;;5069284;28;8887;-72
2023/06/13 10:35:02;;;;;;;;;17.00;17.00;;;;;;;;5069452;28;8795;-72
2023/06/13 10:37:34;;;;;;;;;14.33;12.67;;;;;;;;5066590;28;8802;-74
2023/06/13 10:40:05;;;;;;;;;13.00;13.00;;;;;;;;5069446;28;8949;-74
2023/06/13 10:42:36;;;;;;;;;16.00;14.67;;;;;;;;5069505;28;8870;-74
2023/06/13 10:45:28;;;;;;;;;13.33;13.33;;;;;;;;5069323;28;9014;-72
2023/06/13 10:47:53;;;;;;;;;14.33;13.33;;;;;;;;5066040;28;8983;-73
2023/06/13 10:50:20;;;;;;;;;15.00;12.00;;;;;;;;5088625;28;8968;-73
2023/06/13 10:52:46;;;;;;;;;17.00;15.33;;;;;;;;5089653;28;8780;-73
2023/06/13 10:55:29;;;;;;;;;15.00;14.00;;;;;;;;5089534;28;8887;-73
2023/06/13 10:57:56;;;;;;;;;17.33;16.33;;;;;;;;5088185;28;8901;-73
2023/06/13 11:00:25;;;;;;;;;15.00;14.00;;;;;;;;5089363;28;9194;-73
2023/06/13 11:02:57;;;;;;;;;15.00;15.00;;;;;;;;5089609;28;9739;-73
2023/06/13 11:05:22;;;;;;;;;17.33;16.67;;;;;;;;5090058;28;9116;-73
2023/06/13 11:07:47;;;;;;;;;14.67;14.00;;;;;;;;5089103;28;10041;-74
2023/06/13 11:10:14;;;;;;;;;13.67;12.33;;;;;;;;5089252;28;8799;-73
2023/06/13 11:12:43;;;;;;;;;13.67;13.00;;;;;;;;5089544;28;8818;-73
2023/06/13 11:15:23;;;;;;;;;13.00;12.33;;;;;;;;5089111;28;9182;-73
2023/06/13 11:18:00;;;;;;;;;13.00;13.00;;;;;;;;5089422;28;9210;-74
2023/06/13 11:20:26;;;;;;;;;14.33;14.33;;;;;;;;5089389;28;9137;-73
2023/06/13 11:22:51;;;;;;;;;12.67;12.00;;;;;;;;5088997;28;9872;-74
2023/06/13 11:25:16;;;;;;;;;11.00;11.00;;;;;;;;5091061;28;8823;-73
2023/06/13 11:27:42;;;;;;;;;9.00;8.00;;;;;;;;5093446;28;8926;-72
2023/06/13 11:30:07;;;;;;;;;12.00;10.33;;;;;;;;5092866;28;8792;-72
2023/06/13 11:32:34;;;;;;;;;12.00;10.00;;;;;;;;5092911;28;8934;-72
2023/06/13 11:35:01;;;;;;;;;7.00;7.00;;;;;;;;5092964;28;8799;-73
2023/06/13 11:37:29;;;;;;;;;11.00;11.00;;;;;;;;5092960;28;8975;-73
2023/06/13 11:39:56;;;;;;;;;11.33;10.00;;;;;;;;5092789;28;9053;-73
2023/06/13 11:42:21;;;;;;;;;13.00;12.33;;;;;;;;5092373;28;9449;-73
2023/06/13 11:44:47;;;;;;;;;9.00;9.00;;;;;;;;5092735;28;9203;-73
2023/06/13 11:47:12;;;;;;;;;8.67;8.00;;;;;;;;5092815;28;8810;-74
2023/06/13 11:49:37;;;;;;;;;7.67;7.67;;;;;;;;5092496;28;8824;-71
2023/06/13 11:52:11;;;;;;;;;10.00;8.67;;;;;;;;5092796;28;9499;-71
2023/06/13 11:54:40;;;;;;;;;6.00;6.00;;;;;;;;5092668;28;8787;-72
2023/06/13 11:57:06;;;;;;;;;5.33;5.33;;;;;;;;5092575;28;9020;-72
2023/06/13 11:59:32;;;;;;;;;7.00;7.00;;;;;;;;5092083;28;9002;-72
2023/06/13 12:01:57;;;;;;;;;6.33;6.33;;;;;;;;5092122;28;9024;-73
2023/06/13 12:04:23;;;;;;;;;4.00;3.00;;;;;;;;5092653;28;8795;-72
2023/06/13 12:06:55;;;;;;;;;2.00;2.00;;;;;;;;5092271;28;8927;-72
2023/06/13 12:09:20;;;;;;;;;3.00;1.75;;;;;;;;5092199;28;11480;-73
2023/06/13 12:11:46;;;;;;;;;3.33;3.33;;;;;;;;5092227;28;8898;-73
2023/06/13 12:14:11;;;;;;;;;2.00;2.00;;;;;;;;5092050;28;9028;-73
2023/06/13 12:16:37;;;;;;;;;4.67;2.33;;;;;;;;5092118;28;8800;-73
2023/06/13 12:19:04;;;;;;;;;4.00;4.00;;;;;;;;5091891;28;8804;-72
2023/06/13 12:21:30;;;;;;;;;3.50;3.00;;;;;;;;5091592;28;8882;-72
2023/06/13 12:23:57;;;;;;;;;1.75;1.75;;;;;;;;5091848;28;8976;-72
2023/06/13 12:26:22;;;;;;;;;4.00;3.00;;;;;;;;5091911;28;8874;-72
2023/06/13 12:28:47;;;;;;;;;1.00;1.00;;;;;;;;5091912;28;8796;-72
2023/06/13 12:31:16;;;;;;;;;3.00;2.00;;;;;;;;5091821;28;8881;-71
2023/06/13 12:33:41;;;;;;;;;2.00;2.00;;;;;;;;5092074;28;8795;-68
2023/06/13 12:36:08;;;;;;;;;2.00;2.00;;;;;;;;5091971;28;8772;-69
2023/06/13 12:38:34;;;;;;;;;2.00;2.00;;;;;;;;5091725;28;9562;-70
2023/06/13 12:40:59;;;;;;;;;2.00;2.00;;;;;;;;5084957;28;8871;-70
2023/06/13 12:43:25;;;;;;;;;1.67;1.67;;;;;;;;5082817;28;8847;-71
2023/06/13 12:45:51;;;;;;;;;2.75;2.00;;;;;;;;5091349;28;8887;-71
2023/06/13 12:48:17;;;;;;;;;3.00;2.00;;;;;;;;5091449;28;8923;-71
2023/06/13 12:50:42;;;;;;;;;2.25;2.00;;;;;;;;5090500;28;8846;-71
2023/06/13 12:53:08;;;;;;;;;3.33;2.67;;;;;;;;5078246;28;8827;-71
2023/06/13 12:55:35;;;;;;;;;2.00;2.00;;;;;;;;5080804;28;8834;-72
2023/06/13 12:58:21;;;;;;;;;1.75;1.75;;;;;;;;5081012;28;8865;-71
2023/06/13 13:00:46;;;;;;;;;2.00;2.00;;;;;;;;5071236;28;8923;-71
2023/06/13 13:03:11;;;;;;;;;4.00;3.00;;;;;;;;5080059;28;8917;-72
2023/06/13 13:05:37;;;;;;;;;3.00;3.00;;;;;;;;5079866;28;8947;-71
2023/06/13 13:08:02;;;;;;;;;2.00;2.00;;;;;;;;5081187;28;8832;-72
2023/06/13 13:10:30;;;;;;;;;3.67;3.67;;;;;;;;5079277;28;8891;-72
2023/06/13 13:12:56;;;;;;;;;1.50;1.50;;;;;;;;5080035;28;8914;-72
2023/06/13 13:15:21;;;;;;;;;4.00;1.00;;;;;;;;5080189;28;8945;-71
2023/06/13 13:17:46;;;;;;;;;2.00;1.00;;;;;;;;5081489;28;8904;-71
2023/06/13 13:20:11;;;;;;;;;2.00;1.33;;;;;;;;5081108;28;8826;-71
2023/06/13 13:22:37;;;;;;;;;2.00;2.00;;;;;;;;5081384;28;8834;-71
2023/06/13 13:25:02;;;;;;;;;2.00;2.00;;;;;;;;5078661;28;8885;-71
2023/06/13 13:27:27;;;;;;;;;1.00;1.00;;;;;;;;5081025;28;8816;-71
2023/06/13 13:29:52;;;;;;;;;2.00;2.00;;;;;;;;5078619;28;9663;-73
2023/06/13 13:32:18;;;;;;;;;4.33;3.67;;;;;;;;5080020;28;8926;-73
2023/06/13 13:34:43;;;;;;;;;2.67;2.67;;;;;;;;5075538;28;8829;-72
2023/06/13 13:37:08;;;;;;;;;2.33;2.33;;;;;;;;5069020;28;8802;-73
2023/06/13 13:39:33;;;;;;;;;3.67;2.67;;;;;;;;5072860;28;8832;-73
2023/06/13 13:41:59;;;;;;;;;3.33;3.33;;;;;;;;5079109;28;8815;-74
2023/06/13 13:44:24;;;;;;;;;6.00;3.67;;;;;;;;5079475;28;8888;-72
2023/06/13 13:46:49;;;;;;;;;3.00;3.00;;;;;;;;5080753;28;8818;-72
2023/06/13 13:49:15;;;;;;;;;2.33;2.33;;;;;;;;5080156;28;8835;-74
2023/06/13 13:51:45;;;;;;;;;3.00;3.00;;;;;;;;5078026;28;8842;-74
2023/06/13 13:54:11;;;;;;;;;3.00;3.00;;;;;;;;5078718;28;8865;-74
2023/06/13 13:56:36;;;;;;;;;6.33;3.00;;;;;;;;5080352;28;8808;-74
2023/06/13 13:59:02;;;;;;;;;2.67;2.67;;;;;;;;5079292;28;8811;-74
2023/06/13 14:01:27;;;;;;;;;2.33;2.33;;;;;;;;5078954;28;8788;-74
2023/06/13 14:03:53;;;;;;;;;5.00;3.67;;;;;;;;5080642;28;8784;-74
2023/06/13 14:06:18;;;;;;;;;6.00;5.00;;;;;;;;5078844;28;9521;-74
2023/06/13 14:08:43;;;;;;;;;3.33;3.33;;;;;;;;5079297;28;8808;-74
2023/06/13 14:11:09;;;;;;;;;5.00;5.00;;;;;;;;5080013;28;8794;-75
2023/06/13 14:13:34;;;;;;;;;4.33;4.33;;;;;;;;5078363;28;8903;-74
2023/06/13 14:15:59;;;;;;;;;4.00;4.00;;;;;;;;5079916;28;8826;-70
2023/06/13 14:18:25;;;;;;;;;4.00;3.00;;;;;;;;5073298;28;8946;-72
2023/06/13 14:20:50;;;;;;;;;5.00;5.00;;;;;;;;5089547;28;8820;-72
2023/06/13 14:23:18;;;;;;;;;3.00;3.00;;;;;;;;5084950;28;8835;-75
2023/06/13 14:25:44;;;;;;;;;6.25;4.50;;;;;;;;5068067;28;8841;-78
2023/06/13 14:28:10;;;;;;;;;5.00;5.00;;;;;;;;5076149;28;8840;-78
2023/06/13 14:30:35;;;;;;;;;4.00;2.00;;;;;;;;5089802;28;8819;-80
2023/06/13 14:33:01;;;;;;;;;2.00;2.00;;;;;;;;5090209;28;8793;-81
2023/06/13 14:35:28;;;;;;;;;3.00;3.00;;;;;;;;5090034;28;8796;-81
2023/06/13 14:37:53;;;;;;;;;3.75;2.25;;;;;;;;5090106;28;9517;-79
2023/06/13 14:40:18;;;;;;;;;2.00;2.00;;;;;;;;5090030;28;8923;-79
2023/06/13 14:42:44;;;;;;;;;2.33;2.33;;;;;;;;5089830;28;8803;-77
2023/06/13 14:45:09;;;;;;;;;7.67;7.33;;;;;;;;5090199;28;9533;-80
2023/06/13 14:47:35;;;;;;;;;5.00;5.00;;;;;;;;5084998;28;9534;-71
2023/06/13 14:50:00;;;;;;;;;8.00;6.50;;;;;;;;5088235;28;8930;-85
2023/06/13 14:52:26;;;;;;;;;4.33;4.33;;;;;;;;5089920;28;9111;-76
2023/06/13 14:54:51;;;;;;;;;3.00;2.00;;;;;;;;5089286;28;8924;-78
2023/06/13 14:57:16;;;;;;;;;6.67;5.67;;;;;;;;5089756;28;8776;-77